Time;durP1;ratioP1;P1;durP2;ratioP2;P2;SDS_P1;SDS_P2;PMS_P1;PMS_P2;Temp;Humidity;BMP_temperature;BMP_pressure;BME280_temperature;BME280_humidity;BME280_pressure;Samples;Min_cycle;Max_cycle;Signal;HPM_P1;HPM_P2
2022/09/30 00:00:55;;;;;;;;;45.00;37.00;;;;;14.22;63.42;100313.44;2095741;28;46200;-68
2022/09/30 00:01:56;;;;;;;;;39.25;34.75;;;;;14.21;63.62;100309.03;2092622;28;46242;-67
2022/09/30 00:02:56;;;;;;;;;47.00;38.00;;;;;14.22;63.55;100316.09;2095862;28;46417;-69
2022/09/30 00:03:57;;;;;;;;;43.50;37.50;;;;;14.23;63.34;100319.63;2091815;28;46168;-68
2022/09/30 00:04:58;;;;;;;;;43.60;38.00;;;;;14.22;63.56;100318.75;2094729;28;46373;-66
2022/09/30 00:06:03;;;;;;;;;47.50;39.25;;;;;14.22;63.39;100316.09;2089292;28;46448;-68
2022/09/30 00:07:03;;;;;;;;;42.80;35.60;;;;;14.21;63.65;100317.03;2091085;28;46895;-69
2022/09/30 00:08:04;;;;;;;;;40.00;36.00;;;;;14.22;63.51;100318.75;2086142;28;46525;-66
2022/09/30 00:09:05;;;;;;;;;37.50;34.50;;;;;14.22;63.39;100318.75;2086203;28;46522;-68
2022/09/30 00:10:06;;;;;;;;;41.50;36.00;;;;;14.22;63.64;100315.22;2093618;28;46518;-68
2022/09/30 00:11:19;;;;;;;;;38.20;34.80;;;;;14.22;63.43;100318.75;2093779;28;45683;-68
2022/09/30 00:12:19;;;;;;;;;38.60;34.00;;;;;14.21;63.52;100322.38;2091828;28;46502;-66
2022/09/30 00:13:21;;;;;;;;;38.25;34.75;;;;;14.20;63.53;100317.09;2095893;28;46407;-67
2022/09/30 00:14:22;;;;;;;;;41.20;34.20;;;;;14.20;63.16;100322.44;2092359;28;46455;-67
2022/09/30 00:15:23;;;;;;;;;42.80;36.00;;;;;14.20;63.15;100322.44;2093720;28;46889;-68
2022/09/30 00:16:26;;;;;;;;;38.00;33.40;;;;;14.20;63.59;100319.75;2094507;28;45127;-68
2022/09/30 00:17:27;;;;;;;;;35.00;31.20;;;;;14.19;63.52;100323.38;2097368;28;46371;-67
2022/09/30 00:18:27;;;;;;;;;38.00;34.40;;;;;14.19;63.42;100320.69;2094081;28;46504;-68
2022/09/30 00:19:28;;;;;;;;;34.75;32.50;;;;;14.19;63.51;100324.25;2091414;28;46720;-68
2022/09/30 00:20:28;;;;;;;;;36.75;33.00;;;;;14.19;63.18;100313.56;2093483;28;46584;-69
2022/09/30 00:21:29;;;;;;;;;34.00;31.00;;;;;14.19;63.52;100315.38;2096926;28;46451;-69
2022/09/30 00:22:29;;;;;;;;;38.50;34.50;;;;;14.18;63.45;100317.16;2093655;28;46355;-68
2022/09/30 00:23:30;;;;;;;;;35.00;32.00;;;;;14.18;63.18;100318.97;2094036;28;44947;-67
2022/09/30 00:24:30;;;;;;;;;35.00;30.25;;;;;14.17;63.32;100320.78;2093341;28;47234;-66
2022/09/30 00:25:30;;;;;;;;;36.50;33.25;;;;;14.18;63.42;100317.16;2095845;28;46284;-69
2022/09/30 00:26:31;;;;;;;;;34.75;32.00;;;;;14.18;63.52;100321.63;2093959;28;46235;-68
2022/09/30 00:27:32;;;;;;;;;34.50;30.00;;;;;14.18;63.53;100319.84;2093428;28;46291;-68
2022/09/30 00:28:33;;;;;;;;;34.25;32.00;;;;;14.18;63.26;100313.63;2093674;28;47199;-68
2022/09/30 00:29:33;;;;;;;;;38.00;33.00;;;;;14.17;63.28;100319.91;2092161;28;46332;-67
2022/09/30 00:30:33;;;;;;;;;43.00;35.75;;;;;14.17;63.32;100315.44;2094245;28;46276;-67
2022/09/30 00:31:34;;;;;;;;;34.50;30.25;;;;;14.18;62.93;100316.31;2091745;28;46219;-68
2022/09/30 00:32:35;;;;;;;;;36.00;33.00;;;;;14.18;63.01;100319.84;2093962;28;45354;-66
2022/09/30 00:33:35;;;;;;;;;35.00;31.25;;;;;14.18;63.35;100321.63;2087081;28;46201;-67
2022/09/30 00:34:36;;;;;;;;;37.25;33.75;;;;;14.18;63.29;100314.50;2083703;28;46530;-67
2022/09/30 00:35:37;;;;;;;;;34.50;32.00;;;;;14.18;63.06;100325.16;2083515;28;46504;-68
2022/09/30 00:36:46;;;;;;;;;42.25;34.75;;;;;14.16;63.38;100316.38;2091269;28;46363;-67
2022/09/30 00:37:46;;;;;;;;;32.00;30.60;;;;;14.16;63.20;100319.03;2094175;28;47291;-68
2022/09/30 00:38:46;;;;;;;;;36.50;33.50;;;;;14.13;63.09;100320.03;2095212;28;46536;-68
2022/09/30 00:39:47;;;;;;;;;32.75;31.50;;;;;14.12;63.35;100318.31;2094237;28;46495;-66
2022/09/30 00:40:48;;;;;;;;;27.50;26.00;;;;;14.12;63.17;100317.44;2095555;28;45555;-67
2022/09/30 00:41:51;;;;;;;;;27.60;26.20;;;;;14.11;63.07;100318.38;2091988;28;46421;-67
2022/09/30 00:42:52;;;;;;;;;33.80;32.00;;;;;14.11;63.25;100318.38;2093836;28;47634;-69
2022/09/30 00:43:52;;;;;;;;;27.00;26.50;;;;;14.10;63.15;100308.59;2088188;28;46637;-68
2022/09/30 00:45:03;;;;;;;;;32.50;30.25;;;;;14.10;63.44;100305.94;2081427;28;46292;-66
2022/09/30 00:46:05;;;;;;;;;31.80;30.00;;;;;14.08;63.17;100300.66;2084688;28;46779;-67
2022/09/30 00:47:28;;;;;;;;;29.80;27.80;;;;;14.09;63.14;100309.53;2086608;28;46872;-66
2022/09/30 00:48:38;;;;;;;;;32.00;29.80;;;;;14.09;63.26;100309.53;2085739;28;46719;-68
2022/09/30 00:49:38;;;;;;;;;31.80;29.20;;;;;14.08;63.16;100318.47;2087388;28;46397;-68
2022/09/30 00:50:48;;;;;;;;;25.25;25.00;;;;;14.09;63.18;100320.22;2094547;28;46549;-68
2022/09/30 00:51:53;;;;;;;;;29.60;29.00;;;;;14.07;63.34;100322.94;2094411;28;46314;-66
2022/09/30 00:53:15;;;;;;;;;33.00;30.80;;;;;14.08;63.09;100323.81;2091985;28;46484;-68
2022/09/30 00:54:24;;;;;;;;;30.60;30.20;;;;;14.08;63.00;100322.03;2094392;28;46199;-68
2022/09/30 00:55:33;;;;;;;;;29.60;29.60;;;;;14.07;63.30;100322.09;2093736;28;45998;-68
2022/09/30 00:56:40;;;;;;;;;30.20;29.00;;;;;14.07;63.25;100322.09;2093812;28;46517;-67
2022/09/30 00:57:41;;;;;;;;;29.60;29.60;;;;;14.07;63.21;100322.94;2095011;28;46524;-67
2022/09/30 00:58:44;;;;;;;;;30.25;27.75;;;;;14.08;63.25;100319.34;2093451;28;46674;-67
2022/09/30 00:59:49;;;;;;;;;31.40;30.00;;;;;14.08;63.41;100322.03;2093000;28;46554;-67
2022/09/30 01:00:50;;;;;;;;;29.40;29.20;;;;;14.08;63.22;100323.81;2096387;28;47393;-68
2022/09/30 01:01:51;;;;;;;;;30.20;28.80;;;;;14.08;63.66;100321.16;2093885;28;46889;-68
2022/09/30 01:02:53;;;;;;;;;25.50;25.50;;;;;14.07;63.21;100322.94;2092744;28;46206;-67
2022/09/30 01:04:05;;;;;;;;;34.40;31.80;;;;;14.07;63.40;100319.41;2095852;28;47666;-67
2022/09/30 01:05:08;;;;;;;;;27.00;26.60;;;;;14.06;63.23;100318.56;2094783;28;46947;-68
2022/09/30 01:06:08;;;;;;;;;29.80;28.60;;;;;14.04;63.28;100317.75;2091738;28;46427;-68
2022/09/30 01:07:09;;;;;;;;;33.00;30.00;;;;;14.05;63.31;100323.97;2092427;28;46632;-67
2022/09/30 01:08:10;;;;;;;;;32.20;28.60;;;;;14.05;63.21;100321.28;2092222;28;46784;-67
2022/09/30 01:09:11;;;;;;;;;27.50;27.50;;;;;14.04;63.17;100322.22;2096314;28;46577;-68
2022/09/30 01:10:11;;;;;;;;;25.75;25.75;;;;;14.02;63.29;100329.44;2093394;28;46490;-67
2022/09/30 01:11:13;;;;;;;;;15.50;15.50;;;;;14.01;63.21;100325.91;2095385;28;46502;-67
2022/09/30 01:12:18;;;;;;;;;30.60;30.00;;;;;14.01;63.24;100319.69;2095681;28;46509;-66
2022/09/30 01:13:22;;;;;;;;;32.60;30.20;;;;;13.99;63.21;100333.09;2096805;28;47201;-68
2022/09/30 01:14:25;;;;;;;;;30.00;29.80;;;;;13.99;63.13;100325.09;2093423;28;46650;-69
2022/09/30 01:15:44;;;;;;;;;30.40;28.80;;;;;13.98;63.27;100328.69;2088775;28;45628;-66
2022/09/30 01:17:14;;;;;;;;;29.00;27.80;;;;;13.94;63.39;100328.88;2095622;28;46780;-67
2022/09/30 01:18:32;;;;;;;;;25.00;24.60;;;;;13.93;63.37;100325.34;2092608;28;45780;-66
2022/09/30 01:19:42;;;;;;;;;30.60;30.00;;;;;13.91;63.16;100324.53;2081680;28;47173;-66
2022/09/30 01:20:54;;;;;;;;;23.80;23.00;;;;;13.91;63.58;100327.22;2087434;28;46859;-68
2022/09/30 01:22:18;;;;;;;;;18.40;18.40;;;;;13.91;63.41;100334.34;2086470;28;48302;-67
2022/09/30 01:23:41;;;;;;;;;30.00;28.20;;;;;13.91;63.35;100327.22;2088625;28;46596;-67
2022/09/30 01:25:10;;;;;;;;;29.20;29.20;;;;;13.91;63.66;100327.22;2081257;28;46188;-68
2022/09/30 01:26:44;;;;;;;;;32.40;30.20;;;;;13.90;63.67;100321.94;2081259;28;46918;-67
2022/09/30 01:28:05;;;;;;;;;27.80;27.80;;;;;13.90;63.60;100324.59;2082850;28;46617;-66
2022/09/30 01:29:08;;;;;;;;;33.80;32.00;;;;;13.89;63.71;100325.53;2085899;28;46327;-67
2022/09/30 01:30:12;;;;;;;;;32.60;30.40;;;;;13.88;63.67;100327.34;2086304;28;45305;-68
2022/09/30 01:31:21;;;;;;;;;32.20;28.60;;;;;13.89;63.83;100320.22;2087714;28;46568;-68
2022/09/30 01:32:37;;;;;;;;;29.60;29.20;;;;;13.88;63.66;100319.34;2083494;28;46648;-67
2022/09/30 01:34:10;;;;;;;;;35.80;32.00;;;;;13.87;63.47;100322.06;2085366;28;46959;-67
2022/09/30 01:35:43;;;;;;;;;33.20;32.20;;;;;13.85;63.63;100316.81;2079790;28;46765;-68
2022/09/30 01:36:59;;;;;;;;;27.80;27.80;;;;;13.84;63.89;100317.72;2087051;28;46497;-67
2022/09/30 01:38:08;;;;;;;;;27.60;27.60;;;;;13.83;63.39;100319.50;2086596;28;45761;-67
2022/09/30 01:39:08;;;;;;;;;31.60;30.00;;;;;13.82;63.67;100320.44;2086841;28;46744;-67
2022/09/30 01:40:52;;;;;;;;;28.50;27.50;;;;;13.83;63.61;100319.50;2086350;28;46886;-67
2022/09/30 01:42:26;;;;;;;;;38.20;33.00;;;;;13.82;63.94;100315.09;2036092;28;46395;-67
2022/09/30 01:43:52;;;;;;;;;30.80;29.60;;;;;13.83;63.83;100324.84;2038207;28;46631;-68
2022/09/30 01:45:12;;;;;;;;;29.80;28.20;;;;;13.83;63.80;100319.50;2039390;28;46665;-65
2022/09/30 01:46:43;;;;;;;;;31.00;30.20;;;;;13.83;63.75;100322.19;2036455;28;46989;-66
2022/09/30 01:48:16;;;;;;;;;28.20;27.20;;;;;13.83;64.08;100327.50;2033325;28;46739;-67
2022/09/30 01:49:30;;;;;;;;;27.00;25.60;;;;;13.83;63.98;100324.84;2038470;28;46030;-67
2022/09/30 01:50:34;;;;;;;;;32.40;31.40;;;;;13.82;63.74;100324.91;2037057;28;46911;-67
2022/09/30 01:51:45;;;;;;;;;27.00;27.00;;;;;13.81;63.74;100326.72;2044600;28;46666;-69
2022/09/30 01:53:05;;;;;;;;;27.60;26.20;;;;;13.81;63.85;100332.03;2045611;28;46765;-67
2022/09/30 01:54:30;;;;;;;;;29.40;29.20;;;;;13.79;63.92;100333.03;2044896;28;46442;-69
2022/09/30 01:55:44;;;;;;;;;27.80;27.60;;;;;13.79;63.79;100339.25;2046836;28;46315;-67
2022/09/30 01:56:53;;;;;;;;;29.40;29.00;;;;;13.77;64.06;100333.13;2045222;28;47462;-67
2022/09/30 01:58:08;;;;;;;;;35.60;29.00;;;;;13.77;63.87;100340.25;2045297;28;46305;-67
2022/09/30 01:59:15;;;;;;;;;29.00;26.60;;;;;13.75;63.94;100334.97;2046747;28;46730;-68
2022/09/30 02:00:15;;;;;;;;;26.60;25.40;;;;;13.75;64.18;100334.97;2045868;28;47267;-67
2022/09/30 02:01:30;;;;;;;;;30.00;27.00;;;;;13.76;63.99;100341.19;2046588;28;46667;-68
2022/09/30 02:02:34;;;;;;;;;28.20;26.80;;;;;13.76;63.90;100338.50;2044361;28;46714;-66
2022/09/30 02:03:48;;;;;;;;;28.20;27.80;;;;;13.72;63.93;100335.13;2046288;28;46742;-68
2022/09/30 02:05:18;;;;;;;;;27.80;27.80;;;;;13.71;64.00;100337.81;2046179;28;46421;-67
2022/09/30 02:06:24;;;;;;;;;21.60;21.40;;;;;13.71;63.91;100328.00;2042686;28;46578;-69
2022/09/30 02:07:33;;;;;;;;;29.20;27.40;;;;;13.71;63.83;100337.81;2045414;28;46702;-66
2022/09/30 02:08:52;;;;;;;;;31.00;29.40;;;;;13.70;64.21;100330.75;2044423;28;45282;-68
2022/09/30 02:10:11;;;;;;;;;33.80;31.60;;;;;13.69;64.00;100329.00;2045106;28;45280;-68
2022/09/30 02:11:16;;;;;;;;;28.60;28.60;;;;;13.69;64.25;100337.00;2045745;28;45159;-67
2022/09/30 02:12:21;;;;;;;;;31.00;30.20;;;;;13.68;64.01;100322.81;2044857;28;47224;-67
2022/09/30 02:13:36;;;;;;;;;29.40;29.40;;;;;13.67;63.98;100323.75;2046552;28;46755;-66
2022/09/30 02:14:42;;;;;;;;;25.00;24.60;;;;;13.66;63.76;100330.00;2045264;28;46497;-69
2022/09/30 02:15:50;;;;;;;;;28.80;27.80;;;;;13.66;63.82;100332.69;2045497;28;46479;-67
2022/09/30 02:16:58;;;;;;;;;30.40;28.00;;;;;13.65;63.71;100336.28;2084899;28;46938;-69
2022/09/30 02:18:09;;;;;;;;;25.20;23.60;;;;;13.66;63.98;100326.47;2093489;28;46450;-67
2022/09/30 02:19:17;;;;;;;;;28.80;28.80;;;;;13.66;63.70;100332.69;2096100;28;46643;-67
2022/09/30 02:20:23;;;;;;;;;29.60;28.60;;;;;13.66;63.74;100332.69;2093198;28;46344;-66
2022/09/30 02:21:31;;;;;;;;;27.20;26.40;;;;;13.65;64.00;100335.41;2088335;28;46959;-67
2022/09/30 02:22:57;;;;;;;;;26.40;25.20;;;;;13.65;64.00;100333.59;2091611;28;46195;-67
2022/09/30 02:24:04;;;;;;;;;33.80;31.80;;;;;13.63;63.70;100330.16;2089430;28;46190;-69
2022/09/30 02:25:07;;;;;;;;;29.60;29.40;;;;;13.63;63.67;100324.81;2094503;28;46517;-68
2022/09/30 02:26:16;;;;;;;;;28.80;28.80;;;;;13.61;63.56;100326.69;2094330;28;45755;-69
2022/09/30 02:27:27;;;;;;;;;20.40;19.20;;;;;13.60;63.89;100324.06;2096360;28;46793;-68
2022/09/30 02:28:29;;;;;;;;;25.20;23.80;;;;;13.59;64.00;100323.19;2093799;28;46784;-66
2022/09/30 02:29:33;;;;;;;;;26.20;26.20;;;;;13.60;63.73;100322.28;2093286;28;46608;-66
2022/09/30 02:30:37;;;;;;;;;33.20;30.20;;;;;13.60;64.09;100321.41;2094504;28;45299;-67
2022/09/30 02:31:43;;;;;;;;;27.60;27.60;;;;;13.60;63.95;100318.75;2092000;28;46879;-66
2022/09/30 02:32:50;;;;;;;;;30.60;27.40;;;;;13.60;63.85;100316.94;2094543;28;45616;-66
2022/09/30 02:34:07;;;;;;;;;25.00;24.80;;;;;13.60;63.76;100321.41;2088821;28;45930;-68
2022/09/30 02:35:22;;;;;;;;;28.40;27.40;;;;;13.58;63.74;100315.25;2094810;28;46490;-67
2022/09/30 02:36:32;;;;;;;;;27.40;27.20;;;;;13.58;63.95;100316.09;2090107;28;46879;-68
2022/09/30 02:37:44;;;;;;;;;31.80;29.20;;;;;13.57;64.04;100325.03;2090549;28;46362;-67
2022/09/30 02:38:50;;;;;;;;;28.60;27.80;;;;;13.58;63.93;100320.56;2095292;28;46919;-68
2022/09/30 02:40:01;;;;;;;;;29.40;29.40;;;;;13.57;64.00;100319.72;2095299;28;46676;-68
2022/09/30 02:41:09;;;;;;;;;35.80;28.60;;;;;13.57;64.10;100322.38;2093826;28;46638;-67
2022/09/30 02:42:27;;;;;;;;;34.60;31.00;;;;;13.58;63.99;100323.25;2094208;28;46689;-67
2022/09/30 02:43:29;;;;;;;;;30.60;30.20;;;;;13.57;63.91;100330.38;2088067;28;47017;-68
2022/09/30 02:44:30;;;;;;;;;30.00;28.80;;;;;13.54;63.81;100312.72;2092557;28;46406;-66
2022/09/30 02:45:41;;;;;;;;;28.60;27.80;;;;;13.54;63.92;100315.38;2093988;28;47215;-68
2022/09/30 02:47:07;;;;;;;;;37.80;32.00;;;;;13.53;63.88;100318.09;2090981;28;46865;-67
2022/09/30 02:48:34;;;;;;;;;32.00;29.60;;;;;13.51;63.94;100320.84;2093898;28;46816;-69
2022/09/30 02:49:46;;;;;;;;;34.60;30.20;;;;;13.52;64.02;100319.03;2096107;28;46908;-67
2022/09/30 02:50:55;;;;;;;;;35.20;32.80;;;;;13.52;63.91;100319.03;2095229;28;46827;-67
2022/09/30 02:52:04;;;;;;;;;34.00;32.00;;;;;13.52;63.93;100325.25;2095420;28;46059;-67
2022/09/30 02:53:23;;;;;;;;;31.80;29.00;;;;;13.52;64.19;100333.22;2094896;28;46529;-68
2022/09/30 02:54:42;;;;;;;;;28.80;28.20;;;;;13.50;63.95;100336.91;2093614;28;46149;-67
2022/09/30 02:56:01;;;;;;;;;27.60;26.60;;;;;13.48;64.03;100338.75;2091134;28;46087;-67
2022/09/30 02:57:18;;;;;;;;;31.80;30.60;;;;;13.44;64.16;100348.66;2093461;28;47467;-68
2022/09/30 02:58:21;;;;;;;;;27.80;26.60;;;;;13.42;64.05;100342.53;2093329;28;46318;-67
2022/09/30 02:59:24;;;;;;;;;35.00;30.40;;;;;13.42;64.09;100336.31;2093488;28;45590;-68
2022/09/30 03:00:25;;;;;;;;;31.20;29.20;;;;;13.41;64.25;100338.13;2092643;28;46578;-68
2022/09/30 03:01:25;;;;;;;;;32.00;31.00;;;;;13.40;64.19;100339.03;2096935;28;45437;-67
2022/09/30 03:02:27;;;;;;;;;27.75;26.50;;;;;13.40;64.39;100336.38;2094158;28;46735;-67
2022/09/30 03:03:59;;;;;;;;;29.80;28.80;;;;;13.40;64.28;100340.84;2095525;28;45664;-68
2022/09/30 03:04:59;;;;;;;;;25.40;24.20;;;;;13.39;64.30;100344.44;2075614;28;46540;-68
2022/09/30 03:06:00;;;;;;;;;26.25;26.25;;;;;13.38;64.38;100343.56;2069414;28;46983;-68
2022/09/30 03:07:01;;;;;;;;;28.50;28.50;;;;;13.38;64.09;100343.56;2071331;28;46478;-66
2022/09/30 03:08:01;;;;;;;;;33.25;29.25;;;;;13.38;64.51;100350.72;2074807;28;46238;-67
2022/09/30 03:09:03;;;;;;;;;28.75;28.50;;;;;13.38;64.38;100343.56;2078330;28;46278;-69
2022/09/30 03:10:14;;;;;;;;;27.80;26.20;;;;;13.38;64.41;100342.72;2077340;28;46397;-67
2022/09/30 03:11:27;;;;;;;;;28.40;27.00;;;;;13.36;64.52;100345.44;2078538;28;46545;-68
2022/09/30 03:12:41;;;;;;;;;28.20;28.20;;;;;13.38;64.62;100346.25;2077438;28;45765;-68
2022/09/30 03:14:05;;;;;;;;;25.40;24.20;;;;;13.40;64.63;100354.19;2077979;28;47380;-67
2022/09/30 03:15:17;;;;;;;;;28.60;27.80;;;;;13.40;64.50;100347.03;2078291;28;45699;-69
2022/09/30 03:16:28;;;;;;;;;24.40;23.60;;;;;13.41;64.21;100353.25;2077596;28;46581;-67
2022/09/30 03:18:01;;;;;;;;;29.60;28.60;;;;;13.41;64.47;100355.91;2076185;28;46745;-68
2022/09/30 03:19:25;;;;;;;;;28.60;27.00;;;;;13.42;64.31;100362.97;2046128;28;46551;-67
2022/09/30 03:20:33;;;;;;;;;34.40;30.60;;;;;13.41;64.20;100362.09;2029126;29;46464;-68
2022/09/30 03:21:51;;;;;;;;;28.40;28.40;;;;;13.41;64.51;100363.91;2030226;29;46778;-68
2022/09/30 03:23:10;;;;;;;;;27.80;26.60;;;;;13.42;64.29;100371.84;2026242;29;46700;-68
2022/09/30 03:24:30;;;;;;;;;28.80;27.60;;;;;13.42;64.44;100376.31;2029118;29;46478;-67
2022/09/30 03:25:48;;;;;;;;;31.00;30.60;;;;;13.41;64.21;100378.09;2022632;29;46729;-68
2022/09/30 03:27:00;;;;;;;;;30.60;29.00;;;;;13.42;64.46;100379.84;2029386;29;46461;-70
2022/09/30 03:28:15;;;;;;;;;29.00;28.80;;;;;13.42;64.30;100384.28;2021181;29;47827;-69
2022/09/30 03:29:20;;;;;;;;;30.20;28.60;;;;;13.42;64.26;100379.84;2015861;29;46399;-67
2022/09/30 03:30:27;;;;;;;;;30.60;29.00;;;;;13.41;64.40;100385.22;2021172;29;46199;-67
2022/09/30 03:31:37;;;;;;;;;28.60;28.40;;;;;13.40;64.14;100386.16;2030285;29;46880;-67
2022/09/30 03:32:58;;;;;;;;;25.20;25.20;;;;;13.40;64.29;100391.50;2029283;29;46102;-67
2022/09/30 03:34:06;;;;;;;;;31.60;29.80;;;;;13.41;64.19;100393.22;2024545;28;46758;-67
2022/09/30 03:35:59;;;;;;;;;31.80;30.80;;;;;13.40;64.43;100389.69;2029856;28;45647;-67
2022/09/30 03:37:16;;;;;;;;;22.20;22.20;;;;;13.41;64.62;100395.88;2011580;29;45956;-67
2022/09/30 03:38:40;;;;;;;;;26.20;26.00;;;;;13.39;64.40;100395.94;2011281;29;46498;-66
2022/09/30 03:40:09;;;;;;;;;23.80;23.80;;;;;13.41;64.46;100399.44;2014002;29;46727;-69
2022/09/30 03:41:30;;;;;;;;;27.40;26.60;;;;;13.41;64.27;100398.56;2005307;29;47257;-67
2022/09/30 03:42:38;;;;;;;;;27.20;26.40;;;;;13.40;64.41;100402.16;2006961;29;46556;-67
2022/09/30 03:43:49;;;;;;;;;27.20;26.40;;;;;13.40;64.29;100410.16;2014139;29;47340;-67
2022/09/30 03:45:08;;;;;;;;;25.80;25.80;;;;;13.37;64.29;100397.81;2013864;29;46321;-67
2022/09/30 03:46:20;;;;;;;;;28.60;28.60;;;;;13.37;64.33;100411.13;2014099;29;46608;-68
2022/09/30 03:47:24;;;;;;;;;27.80;26.60;;;;;13.37;64.28;100407.59;2014701;29;46774;-67
2022/09/30 03:48:28;;;;;;;;;25.60;25.60;;;;;13.37;64.37;100415.59;2014633;29;46311;-68
2022/09/30 03:49:36;;;;;;;;;25.60;25.60;;;;;13.37;64.15;100418.28;2015508;29;46011;-68
2022/09/30 03:50:40;;;;;;;;;26.00;25.40;;;;;13.37;64.26;100426.25;2013388;29;46737;-66
2022/09/30 03:51:40;;;;;;;;;28.20;25.80;;;;;13.37;64.24;100421.81;2014398;29;46681;-68
2022/09/30 03:52:41;;;;;;;;;26.60;24.60;;;;;13.38;64.08;100428.00;2014222;29;46939;-69
2022/09/30 03:53:45;;;;;;;;;23.25;21.00;;;;;13.38;64.35;100428.88;2013582;29;46139;-68
2022/09/30 03:54:51;;;;;;;;;25.40;23.00;;;;;13.40;64.40;100436.81;2010231;29;45984;-68
2022/09/30 03:55:52;;;;;;;;;23.40;23.00;;;;;13.38;64.24;100436.88;2013457;29;46853;-65
2022/09/30 03:56:53;;;;;;;;;26.40;24.80;;;;;13.38;64.18;100434.19;2032955;28;47289;-67
2022/09/30 03:57:53;;;;;;;;;25.00;21.75;;;;;13.37;64.02;100435.13;2042164;28;45876;-67
2022/09/30 03:58:55;;;;;;;;;22.00;22.00;;;;;13.37;64.38;100442.25;2062078;28;46436;-68
2022/09/30 03:59:59;;;;;;;;;21.20;21.20;;;;;13.36;64.11;100440.53;2060866;28;47005;-68
2022/09/30 04:00:59;;;;;;;;;24.20;23.00;;;;;13.34;64.12;100440.59;2061515;28;46354;-68
2022/09/30 04:01:59;;;;;;;;;25.75;23.00;;;;;13.34;64.32;100439.69;2060827;28;47076;-67
2022/09/30 04:02:59;;;;;;;;;24.25;22.50;;;;;13.33;64.08;100444.16;2061867;28;46465;-68
2022/09/30 04:04:00;;;;;;;;;24.25;24.25;;;;;13.32;64.22;100437.06;2059819;28;46359;-68
2022/09/30 04:05:00;;;;;;;;;26.25;26.25;;;;;13.33;64.17;100448.59;2062210;28;45176;-68
2022/09/30 04:06:01;;;;;;;;;21.75;21.50;;;;;13.31;64.15;100443.34;2060671;28;46589;-69
2022/09/30 04:07:02;;;;;;;;;26.20;24.60;;;;;13.31;64.07;100446.00;2061925;28;45344;-68
2022/09/30 04:08:02;;;;;;;;;23.75;22.00;;;;;13.31;64.33;100448.66;2059366;28;46471;-68
2022/09/30 04:09:02;;;;;;;;;22.50;21.50;;;;;13.29;64.04;100453.19;2061806;28;45856;-66
2022/09/30 04:10:04;;;;;;;;;23.50;23.50;;;;;13.29;64.19;100447.00;2060394;28;46504;-67
2022/09/30 04:11:05;;;;;;;;;24.40;22.80;;;;;13.29;64.32;100455.00;2061670;28;45210;-67
2022/09/30 04:12:06;;;;;;;;;22.50;22.50;;;;;13.28;63.94;100455.91;2059053;28;46682;-67
2022/09/30 04:13:07;;;;;;;;;24.00;21.80;;;;;13.29;63.89;100462.97;2077844;28;46608;-68
2022/09/30 04:14:08;;;;;;;;;23.20;20.80;;;;;13.30;63.83;100467.38;2090451;28;45979;-67
2022/09/30 04:15:08;;;;;;;;;25.25;25.25;;;;;13.29;63.80;100458.53;2094901;28;46687;-66
2022/09/30 04:16:09;;;;;;;;;23.75;22.50;;;;;13.29;63.92;100458.53;2092505;28;46541;-67
2022/09/30 04:17:09;;;;;;;;;24.50;22.75;;;;;13.32;63.67;100469.06;2092255;28;46085;-66
2022/09/30 04:18:09;;;;;;;;;22.50;21.50;;;;;13.32;63.51;100473.53;2089717;28;46209;-68
2022/09/30 04:19:10;;;;;;;;;23.25;23.25;;;;;13.33;63.73;100475.25;2092877;28;46672;-68
2022/09/30 04:20:11;;;;;;;;;23.50;23.50;;;;;13.33;63.79;100478.78;2093693;28;46118;-68
2022/09/30 04:21:14;;;;;;;;;20.80;20.80;;;;;13.34;63.78;100477.91;2090589;28;46737;-68
2022/09/30 04:22:15;;;;;;;;;23.40;23.40;;;;;13.34;63.68;100477.91;2094822;28;47064;-67
2022/09/30 04:23:15;;;;;;;;;23.00;22.25;;;;;13.33;63.50;100481.44;2091241;28;46482;-67
2022/09/30 04:24:16;;;;;;;;;22.75;22.75;;;;;13.33;63.43;100488.59;2088594;28;46611;-67
2022/09/30 04:25:16;;;;;;;;;20.75;19.75;;;;;13.31;63.50;100485.09;2087295;28;46407;-66
2022/09/30 04:26:18;;;;;;;;;20.25;20.25;;;;;13.31;63.63;100488.66;2090831;28;46360;-68
2022/09/30 04:27:19;;;;;;;;;20.60;20.40;;;;;13.29;63.42;100490.50;2094698;28;46945;-69
2022/09/30 04:28:21;;;;;;;;;21.00;21.00;;;;;13.29;63.26;100486.97;2091932;28;45485;-69
2022/09/30 04:29:21;;;;;;;;;21.20;19.80;;;;;13.29;63.28;100498.50;2085679;28;46387;-68
2022/09/30 04:30:21;;;;;;;;;22.25;22.25;;;;;13.27;63.17;100489.69;2085898;28;45836;-68
2022/09/30 04:31:22;;;;;;;;;23.00;21.75;;;;;13.27;63.35;100494.16;2090967;28;46627;-69
2022/09/30 04:32:24;;;;;;;;;20.00;18.75;;;;;13.26;63.37;100493.28;2088768;28;45486;-67
2022/09/30 04:33:24;;;;;;;;;18.80;18.80;;;;;13.26;63.24;100495.94;2093468;28;46436;-67
2022/09/30 04:34:25;;;;;;;;;22.50;20.50;;;;;13.25;63.27;100492.41;2093327;28;47232;-67
2022/09/30 04:35:28;;;;;;;;;18.75;18.75;;;;;13.24;63.30;100496.00;2097705;28;45104;-66
2022/09/30 04:36:29;;;;;;;;;18.80;18.80;;;;;13.24;63.17;100492.47;2083063;28;45675;-69
2022/09/30 04:37:29;;;;;;;;;22.25;21.00;;;;;13.23;63.08;100499.59;2081897;28;48160;-68
2022/09/30 04:38:30;;;;;;;;;18.25;17.00;;;;;13.24;63.26;100500.47;2095879;28;46566;-68
2022/09/30 04:39:30;;;;;;;;;17.20;16.80;;;;;13.22;63.24;100500.53;2096463;28;46733;-66
2022/09/30 04:40:31;;;;;;;;;22.50;20.00;;;;;13.22;63.32;100497.00;2094394;28;46218;-68
2022/09/30 04:41:32;;;;;;;;;19.75;18.50;;;;;13.23;63.02;100504.06;2089990;28;46770;-67
2022/09/30 04:42:33;;;;;;;;;21.80;20.40;;;;;13.22;63.16;100502.31;2095704;28;46329;-67
2022/09/30 04:43:33;;;;;;;;;20.50;19.50;;;;;13.21;63.21;100498.78;2090479;28;46856;-66
2022/09/30 04:44:34;;;;;;;;;19.50;19.00;;;;;13.20;63.11;100505.00;2084483;28;47126;-67
2022/09/30 04:45:34;;;;;;;;;13.20;12.60;;;;;13.19;63.16;100503.28;2083334;28;45120;-67
2022/09/30 04:46:35;;;;;;;;;18.25;16.75;;;;;13.18;63.19;100501.53;2093705;28;46058;-68
2022/09/30 04:47:35;;;;;;;;;19.00;19.00;;;;;13.18;63.06;100504.19;2094801;28;45983;-69
2022/09/30 04:48:36;;;;;;;;;24.25;20.00;;;;;13.17;63.01;100502.44;2095454;28;45645;-66
2022/09/30 04:49:36;;;;;;;;;23.50;20.75;;;;;13.18;63.23;100508.63;2091379;28;45856;-66
2022/09/30 04:50:36;;;;;;;;;17.25;17.00;;;;;13.18;63.13;100508.63;2095390;28;46478;-67
2022/09/30 04:51:37;;;;;;;;;18.75;18.50;;;;;13.17;63.09;100510.44;2093881;28;46891;-67
2022/09/30 04:52:41;;;;;;;;;21.50;20.00;;;;;13.16;63.44;100506.03;2090701;28;46346;-67
2022/09/30 04:53:42;;;;;;;;;17.40;17.40;;;;;13.16;63.37;100503.38;2090983;28;46764;-67
2022/09/30 04:54:42;;;;;;;;;20.40;18.60;;;;;13.14;63.24;100502.56;2096192;28;45629;-67
2022/09/30 04:55:43;;;;;;;;;21.00;20.00;;;;;13.15;63.35;100506.94;2093088;28;46347;-67
2022/09/30 04:56:44;;;;;;;;;19.20;18.00;;;;;13.15;63.18;100506.09;2096259;28;46265;-69
2022/09/30 04:57:44;;;;;;;;;16.75;16.75;;;;;13.15;63.17;100506.09;2096660;28;45400;-68
2022/09/30 04:58:44;;;;;;;;;21.00;20.25;;;;;13.14;63.32;100499.88;2094527;28;46099;-68
2022/09/30 04:59:45;;;;;;;;;18.50;18.50;;;;;13.15;63.21;100503.41;2096445;28;46319;-68
2022/09/30 05:00:45;;;;;;;;;21.75;18.25;;;;;13.14;63.33;100501.69;2092490;28;45980;-68
2022/09/30 05:01:45;;;;;;;;;17.00;17.00;;;;;13.14;63.24;100504.34;2090816;28;47774;-67
2022/09/30 05:02:46;;;;;;;;;18.25;18.25;;;;;13.15;63.32;100508.75;2094000;28;46283;-67
2022/09/30 05:03:47;;;;;;;;;21.00;21.00;;;;;13.16;63.25;100507.81;2092194;28;46907;-68
2022/09/30 05:04:48;;;;;;;;;21.00;21.00;;;;;13.17;63.42;100506.91;2096531;28;47272;-67
2022/09/30 05:05:48;;;;;;;;;18.50;17.25;;;;;13.17;63.29;100513.09;2089341;28;48151;-66
2022/09/30 05:06:48;;;;;;;;;26.00;23.00;;;;;13.16;63.37;100515.81;2092128;28;46611;-66